Time;durP1;ratioP1;P1;durP2;ratioP2;P2;SDS_P1;SDS_P2;PMS_P1;PMS_P2;Temp;Humidity;BMP_temperature;BMP_pressure;BME280_temperature;BME280_humidity;BME280_pressure;Samples;Min_cycle;Max_cycle;Signal;HPM_P1;HPM_P2
2023/06/04 00:00:30;;;;;;;4.80;2.60;;;13.20;99.90;;;;;;5050947;28;20510;-76
2023/06/04 00:02:57;;;;;;;3.53;2.57;;;13.10;99.90;;;;;;5060748;28;21058;-75
2023/06/04 00:05:25;;;;;;;3.20;2.73;;;13.10;99.90;;;;;;5060322;28;20506;-75
2023/06/04 00:07:52;;;;;;;3.00;2.70;;;13.10;99.90;;;;;;5061777;28;20455;-75
2023/06/04 00:10:18;;;;;;;3.77;2.80;;;13.10;99.90;;;;;;5062222;28;20501;-75
2023/06/04 00:12:46;;;;;;;5.13;2.90;;;13.00;99.90;;;;;;5049658;28;20480;-75
2023/06/04 00:15:15;;;;;;;8.30;2.77;;;13.10;99.90;;;;;;5054821;28;20505;-75
2023/06/04 00:17:41;;;;;;;5.43;3.00;;;13.00;99.90;;;;;;5063183;28;20996;-75
2023/06/04 00:20:09;;;;;;;5.43;2.53;;;13.00;99.90;;;;;;5065509;28;20794;-75
2023/06/04 00:22:36;;;;;;;6.83;2.70;;;13.00;99.90;;;;;;5059503;28;21005;-75
2023/06/04 00:25:03;;;;;;;3.53;2.80;;;12.90;99.90;;;;;;5063694;28;20500;-75
2023/06/04 00:27:29;;;;;;;4.20;2.27;;;12.90;99.90;;;;;;5074309;28;20444;-75
2023/06/04 00:29:57;;;;;;;3.70;2.50;;;12.90;99.90;;;;;;5061533;28;20459;-75
2023/06/04 00:32:24;;;;;;;7.53;2.90;;;12.90;99.90;;;;;;5073596;28;20877;-75
2023/06/04 00:34:55;;;;;;;4.13;2.60;;;12.90;99.90;;;;;;5059211;28;20513;-75
2023/06/04 00:37:23;;;;;;;11.77;2.83;;;12.90;99.90;;;;;;5046478;28;20488;-75
2023/06/04 00:39:50;;;;;;;3.10;2.67;;;12.90;99.90;;;;;;5053512;28;20456;-75
2023/06/04 00:42:16;;;;;;;3.60;2.63;;;12.80;99.90;;;;;;5053323;28;21007;-75
2023/06/04 00:44:44;;;;;;;3.70;2.80;;;12.80;99.90;;;;;;5059334;28;20533;-75
2023/06/04 00:47:12;;;;;;;4.13;2.80;;;12.70;99.90;;;;;;5056170;28;20444;-75
2023/06/04 00:49:39;;;;;;;3.77;3.43;;;12.70;99.90;;;;;;5063827;28;20456;-76
2023/06/04 00:52:07;;;;;;;2.67;2.47;;;12.70;99.90;;;;;;5073543;28;20479;-75
2023/06/04 00:54:34;;;;;;;2.77;2.43;;;12.60;99.90;;;;;;5072178;28;20464;-75
2023/06/04 00:57:00;;;;;;;6.53;2.70;;;12.60;99.90;;;;;;5069384;28;20485;-75
2023/06/04 00:59:28;;;;;;;3.10;2.80;;;12.50;99.90;;;;;;5065724;28;20457;-76
2023/06/04 01:01:59;;;;;;;3.90;2.77;;;12.50;99.90;;;;;;5067915;28;20483;-76
2023/06/04 01:04:31;;;;;;;6.27;2.60;;;12.40;99.90;;;;;;5059693;28;20455;-75
2023/06/04 01:07:00;;;;;;;6.30;2.50;;;12.40;99.90;;;;;;5073616;28;20456;-75
2023/06/04 01:09:27;;;;;;;2.70;2.50;;;12.40;99.90;;;;;;5062409;28;20456;-75
2023/06/04 01:11:54;;;;;;;2.87;2.63;;;12.30;99.90;;;;;;5073381;28;20894;-75
2023/06/04 01:14:21;;;;;;;5.90;3.23;;;12.30;99.90;;;;;;5065167;28;20510;-76
2023/06/04 01:16:51;;;;;;;2.70;2.40;;;12.30;99.90;;;;;;5058522;28;20467;-75
2023/06/04 01:19:59;;;;;;;8.43;2.60;;;12.20;99.90;;;;;;5051964;28;20460;-75
2023/06/04 01:22:34;;;;;;;5.00;2.37;;;12.20;99.90;;;;;;5067073;28;20817;-76
2023/06/04 01:25:04;;;;;;;5.10;2.80;;;12.20;99.90;;;;;;5071479;28;20459;-76
2023/06/04 01:27:32;;;;;;;3.27;2.83;;;12.20;99.90;;;;;;5071412;28;20944;-76
2023/06/04 01:30:00;;;;;;;2.63;2.43;;;12.10;99.90;;;;;;5065125;28;20453;-75
2023/06/04 01:32:27;;;;;;;3.27;2.60;;;12.10;99.90;;;;;;5063962;28;20830;-75
2023/06/04 01:34:55;;;;;;;4.40;2.67;;;12.10;99.90;;;;;;5071643;28;20451;-76
2023/06/04 01:37:21;;;;;;;4.80;3.03;;;12.00;99.90;;;;;;5072727;28;20479;-75
2023/06/04 01:39:50;;;;;;;4.53;2.57;;;12.10;99.90;;;;;;5072939;28;20894;-75
2023/06/04 01:42:16;;;;;;;4.00;2.37;;;12.00;99.90;;;;;;5072443;28;20467;-75
2023/06/04 01:44:43;;;;;;;5.37;2.93;;;12.00;99.90;;;;;;5071280;28;20459;-76
2023/06/04 01:47:10;;;;;;;3.10;2.60;;;11.90;99.90;;;;;;5071337;28;20476;-75
2023/06/04 01:49:37;;;;;;;5.53;2.63;;;11.90;99.90;;;;;;5064828;28;20507;-75
2023/06/04 01:52:05;;;;;;;2.90;2.60;;;11.90;99.90;;;;;;5067588;28;20532;-75
2023/06/04 01:54:33;;;;;;;5.10;3.23;;;11.80;99.90;;;;;;5072584;28;20455;-76
2023/06/04 01:57:03;;;;;;;3.47;3.17;;;11.80;99.90;;;;;;5064896;28;20456;-75
2023/06/04 01:59:31;;;;;;;3.97;2.97;;;11.80;99.90;;;;;;5057341;28;20451;-75
2023/06/04 02:01:58;;;;;;;3.17;2.87;;;11.70;99.90;;;;;;5058086;28;20474;-75
2023/06/04 02:04:25;;;;;;;2.70;2.50;;;11.70;99.90;;;;;;5064528;28;20452;-75
2023/06/04 02:06:51;;;;;;;7.90;3.00;;;11.70;99.90;;;;;;5072024;28;20849;-76
2023/06/04 02:09:18;;;;;;;4.80;2.97;;;11.60;99.90;;;;;;5063077;28;20945;-76
2023/06/04 02:11:45;;;;;;;3.37;3.03;;;11.60;99.90;;;;;;5071993;28;20474;-76
2023/06/04 02:14:12;;;;;;;3.53;2.70;;;11.60;99.90;;;;;;5071775;28;20459;-75
2023/06/04 02:16:39;;;;;;;4.07;2.90;;;11.60;99.90;;;;;;5072201;28;20501;-75
2023/06/04 02:19:06;;;;;;;6.37;2.53;;;11.60;99.90;;;;;;5062454;28;20544;-76
2023/06/04 02:21:32;;;;;;;3.90;2.60;;;11.50;99.90;;;;;;5071901;28;21039;-75
2023/06/04 02:23:59;;;;;;;10.93;2.80;;;11.50;99.90;;;;;;5067777;28;20464;-75
2023/06/04 02:26:26;;;;;;;2.87;2.53;;;11.50;99.90;;;;;;5057818;28;20453;-75
2023/06/04 02:28:53;;;;;;;2.50;2.30;;;11.40;99.90;;;;;;5064290;28;20455;-76
2023/06/04 02:31:21;;;;;;;6.83;2.70;;;11.40;99.90;;;;;;5071333;28;20452;-75
2023/06/04 02:33:47;;;;;;;2.60;2.40;;;11.40;99.90;;;;;;5062588;28;20958;-76
2023/06/04 02:36:15;;;;;;;4.43;2.67;;;11.40;99.90;;;;;;5069628;28;20460;-75
2023/06/04 02:38:42;;;;;;;6.73;2.50;;;11.40;99.90;;;;;;5071354;28;20491;-75
2023/06/04 02:41:08;;;;;;;3.17;2.60;;;11.30;99.90;;;;;;5071510;28;20452;-76
2023/06/04 02:43:35;;;;;;;3.40;2.10;;;11.30;99.90;;;;;;5070579;28;20452;-76
2023/06/04 02:46:01;;;;;;;6.00;2.40;;;11.30;99.90;;;;;;5071435;28;20505;-75
2023/06/04 02:48:29;;;;;;;4.37;2.50;;;11.30;99.90;;;;;;5067344;28;20509;-75
2023/06/04 02:50:56;;;;;;;3.23;2.50;;;11.20;99.90;;;;;;5064084;28;20948;-75
2023/06/04 02:53:23;;;;;;;4.97;2.43;;;11.20;99.90;;;;;;5064577;28;21025;-75
2023/06/04 02:55:50;;;;;;;3.57;2.57;;;11.10;99.90;;;;;;5071632;28;20455;-76
2023/06/04 02:58:17;;;;;;;4.53;2.73;;;11.10;99.90;;;;;;5070446;28;21026;-75
2023/06/04 03:00:44;;;;;;;3.40;3.10;;;11.10;99.90;;;;;;5071200;28;20518;-75
2023/06/04 03:03:10;;;;;;;4.93;2.83;;;11.00;99.90;;;;;;5061074;28;20550;-75
2023/06/04 03:05:39;;;;;;;2.53;2.30;;;11.00;99.90;;;;;;5071754;28;20505;-75
2023/06/04 03:08:06;;;;;;;4.87;2.50;;;11.00;99.90;;;;;;5061929;28;20896;-75
2023/06/04 03:10:32;;;;;;;4.17;2.60;;;11.00;99.90;;;;;;5071252;28;20455;-75
2023/06/04 03:12:59;;;;;;;5.43;2.87;;;11.00;99.90;;;;;;5041621;28;20538;-76
2023/06/04 03:15:26;;;;;;;5.63;2.60;;;11.00;99.90;;;;;;5070680;28;20474;-76
2023/06/04 03:17:52;;;;;;;7.73;2.57;;;11.00;99.90;;;;;;5071162;28;20492;-76
2023/06/04 03:20:19;;;;;;;3.83;2.57;;;11.00;99.90;;;;;;5062606;28;20509;-76
2023/06/04 03:22:47;;;;;;;3.60;2.70;;;10.90;99.90;;;;;;5065467;28;20479;-76
2023/06/04 03:25:14;;;;;;;6.43;2.80;;;10.90;99.90;;;;;;5071354;28;20497;-75
2023/06/04 03:27:40;;;;;;;2.90;2.70;;;10.90;99.90;;;;;;5071587;28;20447;-75
2023/06/04 03:30:08;;;;;;;2.53;2.33;;;10.90;99.90;;;;;;5068811;28;20451;-76
2023/06/04 03:32:35;;;;;;;4.50;2.40;;;10.90;99.90;;;;;;5071734;28;20461;-75
2023/06/04 03:35:03;;;;;;;2.43;2.23;;;10.90;99.90;;;;;;5071347;28;20517;-75
2023/06/04 03:37:32;;;;;;;12.97;2.60;;;10.90;99.90;;;;;;5071384;28;20452;-75
2023/06/04 03:40:00;;;;;;;4.30;2.50;;;10.90;99.90;;;;;;5071146;28;20960;-76
2023/06/04 03:42:27;;;;;;;3.20;2.67;;;10.90;99.90;;;;;;5071063;28;20480;-76
2023/06/04 03:44:53;;;;;;;5.03;2.60;;;10.90;99.90;;;;;;5066838;28;20935;-76
2023/06/04 03:47:20;;;;;;;2.83;2.30;;;10.90;99.90;;;;;;5069939;28;20458;-75
2023/06/04 03:49:47;;;;;;;4.43;2.53;;;10.90;99.90;;;;;;5064742;28;20483;-76
2023/06/04 03:52:13;;;;;;;2.70;2.47;;;10.90;99.90;;;;;;5070789;28;21057;-75
2023/06/04 03:54:40;;;;;;;4.53;3.00;;;10.90;99.90;;;;;;5070539;28;20448;-75
2023/06/04 03:57:08;;;;;;;2.63;2.37;;;10.90;99.90;;;;;;5074514;28;20497;-75
2023/06/04 03:59:35;;;;;;;3.63;2.63;;;10.90;99.90;;;;;;5073031;28;20541;-75
2023/06/04 04:02:01;;;;;;;3.83;2.73;;;10.90;99.90;;;;;;5074755;28;20520;-75
2023/06/04 04:04:28;;;;;;;3.40;2.93;;;10.90;99.90;;;;;;5065861;28;20460;-75
2023/06/04 04:06:54;;;;;;;3.97;2.70;;;10.90;99.90;;;;;;5074992;28;20452;-75
2023/06/04 04:09:21;;;;;;;3.77;2.37;;;10.90;99.90;;;;;;5074315;28;20448;-76
2023/06/04 04:11:48;;;;;;;2.60;2.40;;;10.90;99.90;;;;;;5074708;28;20471;-76
2023/06/04 04:14:16;;;;;;;7.73;2.80;;;10.90;99.90;;;;;;5067697;28;20538;-75
2023/06/04 04:16:42;;;;;;;3.77;2.63;;;11.00;99.90;;;;;;5071364;28;20449;-75
2023/06/04 04:19:09;;;;;;;2.47;2.27;;;11.00;99.90;;;;;;5066179;28;20484;-76
2023/06/04 04:21:37;;;;;;;2.40;2.23;;;11.00;99.90;;;;;;5074135;28;20543;-75
2023/06/04 04:24:04;;;;;;;2.90;2.63;;;11.00;99.90;;;;;;5066312;28;20452;-76
2023/06/04 04:26:30;;;;;;;2.60;2.40;;;11.00;99.90;;;;;;5073081;28;20505;-76
2023/06/04 04:28:59;;;;;;;3.13;2.60;;;11.00;99.90;;;;;;5074394;28;20959;-76
2023/06/04 04:31:27;;;;;;;3.60;2.60;;;11.10;99.90;;;;;;5072813;28;20461;-76
2023/06/04 04:33:56;;;;;;;2.87;2.67;;;11.10;99.90;;;;;;5068170;28;21001;-76
2023/06/04 04:36:23;;;;;;;2.57;2.40;;;11.20;99.90;;;;;;5072895;28;20452;-76
2023/06/04 04:38:53;;;;;;;9.80;2.63;;;11.20;99.90;;;;;;5069941;28;20490;-76
2023/06/04 04:41:20;;;;;;;3.03;2.73;;;11.30;99.90;;;;;;5066816;28;20464;-76
2023/06/04 04:43:47;;;;;;;3.20;2.40;;;11.30;99.90;;;;;;5068004;28;20448;-76
2023/06/04 04:46:14;;;;;;;4.43;2.80;;;11.40;99.90;;;;;;5060640;28;20513;-74
2023/06/04 04:48:42;;;;;;;3.30;2.80;;;11.50;99.90;;;;;;5073667;28;20526;-74
2023/06/04 04:51:08;;;;;;;6.70;3.00;;;11.50;99.90;;;;;;5073299;28;20451;-74
2023/06/04 04:53:36;;;;;;;5.03;2.23;;;11.60;99.90;;;;;;5063903;28;20943;-74
2023/06/04 04:56:02;;;;;;;6.00;2.90;;;11.70;99.90;;;;;;5073246;28;20451;-74
2023/06/04 04:58:29;;;;;;;2.87;2.67;;;11.80;99.90;;;;;;5055506;28;21075;-75
2023/06/04 05:00:56;;;;;;;11.03;2.70;;;11.90;99.90;;;;;;5051002;28;20544;-74
2023/06/04 05:03:22;;;;;;;2.30;2.10;;;12.00;99.90;;;;;;5069993;28;20475;-74
2023/06/04 05:05:50;;;;;;;5.10;2.40;;;12.10;99.90;;;;;;5067798;28;20513;-74
2023/06/04 05:08:17;;;;;;;4.07;2.50;;;12.20;99.90;;;;;;5073094;28;20493;-74
2023/06/04 05:10:43;;;;;;;3.13;2.87;;;12.20;99.90;;;;;;5067554;28;20456;-75
2023/06/04 05:13:11;;;;;;;5.40;2.57;;;12.30;99.90;;;;;;5066573;28;20988;-75
2023/06/04 05:15:39;;;;;;;5.00;3.00;;;12.40;99.90;;;;;;5073308;28;20452;-75
2023/06/04 05:18:06;;;;;;;3.63;2.90;;;12.50;99.90;;;;;;5073231;28;20817;-75
2023/06/04 05:20:32;;;;;;;3.73;2.60;;;12.60;99.90;;;;;;5057643;28;20584;-75
2023/06/04 05:23:02;;;;;;;3.87;2.43;;;12.70;99.90;;;;;;5073047;28;20480;-73
2023/06/04 05:25:28;;;;;;;6.73;2.70;;;12.90;99.90;;;;;;5072837;28;20502;-73
2023/06/04 05:27:57;;;;;;;4.70;2.80;;;13.00;99.90;;;;;;5072613;28;20462;-73
2023/06/04 05:30:24;;;;;;;2.87;2.67;;;13.10;99.90;;;;;;5072784;28;20518;-73
2023/06/04 05:32:53;;;;;;;3.83;2.63;;;13.20;99.90;;;;;;5072925;28;20505;-73
2023/06/04 05:35:20;;;;;;;3.43;2.30;;;13.30;99.90;;;;;;5063857;28;20563;-73
2023/06/04 05:37:53;;;;;;;4.70;3.00;;;13.50;99.90;;;;;;5072567;28;20456;-73
2023/06/04 05:40:22;;;;;;;3.53;2.70;;;13.60;99.90;;;;;;5072063;28;20553;-73
2023/06/04 05:42:48;;;;;;;4.13;2.70;;;13.80;99.90;;;;;;5065333;28;20553;-73
2023/06/04 05:45:15;;;;;;;3.00;2.80;;;13.90;99.90;;;;;;5054521;28;20543;-73
2023/06/04 05:47:42;;;;;;;4.60;2.57;;;14.10;99.90;;;;;;5070810;28;20474;-73
2023/06/04 05:50:10;;;;;;;4.70;2.67;;;14.20;99.90;;;;;;5070553;28;20518;-74
2023/06/04 05:52:37;;;;;;;2.90;2.70;;;14.30;99.90;;;;;;5063900;28;20508;-73
2023/06/04 05:55:07;;;;;;;4.90;2.50;;;14.50;99.90;;;;;;5041792;28;20481;-73
2023/06/04 05:57:35;;;;;;;3.33;3.03;;;14.70;99.90;;;;;;5052100;28;20452;-73
2023/06/04 06:00:02;;;;;;;10.03;3.00;;;14.80;99.90;;;;;;5060514;28;20858;-73
2023/06/04 06:02:28;;;;;;;7.73;2.50;;;15.00;99.90;;;;;;5066686;28;20476;-73
2023/06/04 06:04:56;;;;;;;3.93;2.50;;;15.20;99.90;;;;;;5063557;28;20487;-74
2023/06/04 06:07:22;;;;;;;3.23;2.93;;;15.40;99.90;;;;;;5042436;28;20468;-73
2023/06/04 06:09:49;;;;;;;4.43;3.10;;;15.60;99.90;;;;;;5055874;28;20444;-73
2023/06/04 06:12:15;;;;;;;5.50;2.83;;;15.70;99.90;;;;;;5071255;28;20467;-73
2023/06/04 06:14:43;;;;;;;5.27;2.77;;;15.90;99.90;;;;;;5071726;28;20448;-74
2023/06/04 06:17:10;;;;;;;3.43;3.07;;;16.00;99.90;;;;;;5053068;28;20945;-74
2023/06/04 06:19:37;;;;;;;2.73;2.53;;;16.10;99.90;;;;;;5054556;28;20525;-74
2023/06/04 06:22:04;;;;;;;3.73;2.50;;;16.30;99.90;;;;;;5044908;28;20560;-73
2023/06/04 06:24:31;;;;;;;4.20;2.80;;;16.30;99.90;;;;;;5064626;28;21304;-73
2023/06/04 06:26:58;;;;;;;4.67;2.93;;;16.40;99.90;;;;;;5037284;28;20484;-74
2023/06/04 06:29:25;;;;;;;3.20;2.90;;;16.50;99.90;;;;;;5047200;28;20502;-74
2023/06/04 06:31:53;;;;;;;6.30;3.00;;;16.60;99.90;;;;;;5047902;28;21013;-74
2023/06/04 06:34:19;;;;;;;3.60;2.73;;;16.80;99.90;;;;;;5055283;28;20945;-73
2023/06/04 06:36:47;;;;;;;3.00;2.70;;;16.90;99.90;;;;;;5061168;28;20477;-74
2023/06/04 06:39:14;;;;;;;5.13;2.73;;;17.00;99.90;;;;;;5039999;28;20543;-74
2023/06/04 06:41:40;;;;;;;4.33;2.87;;;17.10;99.90;;;;;;5039068;28;20543;-74
2023/06/04 06:44:07;;;;;;;2.60;2.40;;;17.20;99.90;;;;;;5043162;28;20460;-74
2023/06/04 06:46:34;;;;;;;6.70;2.73;;;17.40;99.90;;;;;;5047458;28;20503;-74
2023/06/04 06:49:02;;;;;;;4.00;2.60;;;17.50;99.90;;;;;;5050909;28;20941;-74
2023/06/04 06:51:28;;;;;;;5.90;3.00;;;17.70;99.90;;;;;;5057251;28;20483;-74
2023/06/04 06:53:55;;;;;;;6.30;3.00;;;17.90;99.90;;;;;;5039966;28;20461;-74
2023/06/04 06:56:22;;;;;;;3.73;2.80;;;18.00;99.90;;;;;;5047726;28;20463;-74
2023/06/04 06:58:48;;;;;;;3.83;2.90;;;18.10;99.90;;;;;;5049432;28;20485;-74
2023/06/04 07:01:15;;;;;;;5.80;2.90;;;18.30;99.90;;;;;;5058086;28;20881;-74
2023/06/04 07:03:41;;;;;;;3.97;2.40;;;18.50;99.90;;;;;;5063197;28;20525;-73
2023/06/04 07:06:09;;;;;;;12.60;2.63;;;18.60;99.90;;;;;;5044514;28;20467;-74
2023/06/04 07:08:36;;;;;;;8.40;3.20;;;18.80;99.90;;;;;;5039675;28;20452;-74
2023/06/04 07:11:04;;;;;;;2.70;2.50;;;18.90;99.90;;;;;;5048783;28;20905;-74
2023/06/04 07:13:32;;;;;;;7.33;3.10;;;19.00;99.90;;;;;;5060998;28;20847;-74
2023/06/04 07:15:58;;;;;;;2.67;2.30;;;19.20;99.90;;;;;;5060802;28;20459;-74
2023/06/04 07:18:25;;;;;;;5.93;2.63;;;19.30;99.90;;;;;;5051789;28;20448;-73
2023/06/04 07:20:52;;;;;;;2.60;2.40;;;19.40;99.90;;;;;;5051125;28;20901;-74
2023/06/04 07:23:20;;;;;;;3.60;2.53;;;19.40;99.90;;;;;;5049661;28;20485;-74
2023/06/04 07:25:47;;;;;;;4.30;2.97;;;19.60;99.90;;;;;;5056873;28;20480;-74
2023/06/04 07:28:14;;;;;;;3.90;2.40;;;19.70;99.90;;;;;;5049119;28;20428;-74
2023/06/04 07:30:40;;;;;;;2.80;2.60;;;20.00;99.90;;;;;;5047935;28;20452;-74
2023/06/04 07:33:07;;;;;;;2.93;2.50;;;20.20;99.90;;;;;;5054328;28;20468;-74
2023/06/04 07:35:34;;;;;;;3.50;2.83;;;20.40;99.90;;;;;;5058288;28;20479;-74
2023/06/04 07:38:00;;;;;;;5.53;2.63;;;20.60;99.90;;;;;;5065556;28;20483;-73
2023/06/04 07:40:28;;;;;;;3.13;2.60;;;20.80;99.90;;;;;;5061811;28;20485;-73
2023/06/04 07:42:55;;;;;;;6.00;2.57;;;20.90;99.90;;;;;;5044771;28;20522;-74
2023/06/04 07:45:22;;;;;;;8.10;3.40;;;21.20;99.90;;;;;;5052143;28;20991;-74
2023/06/04 07:47:48;;;;;;;3.37;2.10;;;21.30;99.90;;;;;;5060907;28;20476;-74
2023/06/04 07:50:15;;;;;;;2.20;2.10;;;21.50;99.90;;;;;;5064265;28;20467;-74
2023/06/04 07:52:43;;;;;;;5.20;2.33;;;21.70;99.90;;;;;;5065724;28;20625;-74
2023/06/04 07:55:09;;;;;;;4.20;2.13;;;21.80;99.90;;;;;;5039699;28;21005;-74
2023/06/04 07:57:37;;;;;;;2.47;2.00;;;21.90;99.90;;;;;;5050201;28;20451;-74
2023/06/04 08:00:05;;;;;;;2.70;2.13;;;22.10;99.90;;;;;;5054792;28;20498;-72
2023/06/04 08:02:32;;;;;;;2.30;2.10;;;22.20;99.90;;;;;;5060628;28;21174;-73
2023/06/04 08:04:58;;;;;;;2.20;2.00;;;22.30;99.90;;;;;;5065153;28;20422;-73
2023/06/04 08:07:25;;;;;;;3.77;1.90;;;22.40;99.90;;;;;;5049705;28;20462;-72
2023/06/04 08:09:52;;;;;;;3.83;2.40;;;22.40;99.70;;;;;;5042025;28;20560;-73
2023/06/04 08:12:18;;;;;;;2.10;1.90;;;22.40;99.90;;;;;;5044684;28;20543;-69
2023/06/04 08:14:46;;;;;;;3.03;2.10;;;22.50;98.50;;;;;;5062067;28;20497;-70
2023/06/04 08:17:13;;;;;;;2.97;2.00;;;22.60;99.00;;;;;;5062178;28;20451;-70
2023/06/04 08:19:40;;;;;;;2.40;2.20;;;22.90;99.50;;;;;;5058655;28;20842;-69
2023/06/04 08:22:06;;;;;;;2.40;2.20;;;23.20;99.90;;;;;;5060471;28;20473;-69
2023/06/04 08:24:33;;;;;;;7.43;1.90;;;23.30;98.40;;;;;;5048031;28;20571;-68
2023/06/04 08:27:00;;;;;;;2.67;2.23;;;23.40;97.00;;;;;;5051700;28;20455;-68
2023/06/04 08:29:26;;;;;;;4.23;2.33;;;23.20;97.80;;;;;;5056922;28;20873;-68
2023/06/04 08:31:54;;;;;;;2.80;2.00;;;23.20;96.20;;;;;;5049190;28;20493;-70
2023/06/04 08:34:21;;;;;;;6.73;3.00;;;23.30;98.50;;;;;;5049225;28;20453;-68
2023/06/04 08:36:47;;;;;;;2.90;2.10;;;23.40;96.00;;;;;;5051248;28;20499;-69
2023/06/04 08:39:14;;;;;;;5.67;2.37;;;23.50;97.30;;;;;;5041975;28;20967;-69
2023/06/04 08:41:44;;;;;;;2.57;1.60;;;23.80;95.60;;;;;;5050424;28;20471;-69
2023/06/04 08:44:11;;;;;;;6.33;2.30;;;23.80;95.60;;;;;;5057799;28;20448;-68
2023/06/04 08:46:40;;;;;;;6.03;2.33;;;23.80;95.20;;;;;;5070041;28;20444;-68
2023/06/04 08:49:09;;;;;;;3.00;2.20;;;23.90;95.10;;;;;;5059709;28;20448;-68
2023/06/04 08:51:37;;;;;;;5.27;2.13;;;24.00;94.90;;;;;;5066213;28;20480;-71
2023/06/04 08:54:05;;;;;;;3.60;2.57;;;24.10;96.10;;;;;;5040428;28;20473;-69
2023/06/04 08:56:32;;;;;;;2.20;2.00;;;24.20;95.60;;;;;;5052369;28;20464;-69
2023/06/04 08:59:02;;;;;;;3.93;2.40;;;24.50;94.90;;;;;;5055924;28;20803;-69
2023/06/04 09:01:29;;;;;;;4.27;2.00;;;24.40;95.40;;;;;;5045905;28;20548;-68
2023/06/04 09:03:56;;;;;;;2.43;2.07;;;24.50;95.40;;;;;;5066843;28;20481;-70
2023/06/04 09:06:26;;;;;;;4.70;2.00;;;24.50;94.10;;;;;;5056227;28;20453;-70
2023/06/04 09:08:56;;;;;;;3.33;2.10;;;24.60;96.10;;;;;;5041457;28;21158;-69
2023/06/04 09:11:26;;;;;;;2.93;1.80;;;24.70;95.00;;;;;;5052202;28;20482;-70
2023/06/04 09:13:54;;;;;;;3.20;2.20;;;24.60;93.70;;;;;;5061091;28;20517;-69
2023/06/04 09:16:21;;;;;;;3.00;2.37;;;24.60;93.40;;;;;;5060026;28;20546;-69
2023/06/04 09:18:48;;;;;;;2.10;1.80;;;24.60;93.90;;;;;;5043316;28;20518;-70
2023/06/04 09:21:14;;;;;;;3.40;2.00;;;24.60;93.90;;;;;;5046688;28;20883;-69
2023/06/04 09:23:47;;;;;;;2.80;2.30;;;24.40;91.60;;;;;;5055846;28;20448;-69
2023/06/04 09:26:14;;;;;;;4.40;2.10;;;24.10;92.50;;;;;;5061732;28;20570;-69
2023/06/04 09:28:41;;;;;;;2.30;1.77;;;24.10;93.10;;;;;;5043624;28;20452;-69
2023/06/04 09:31:09;;;;;;;3.37;2.07;;;24.10;93.40;;;;;;5036520;28;20460;-69
2023/06/04 09:33:43;;;;;;;2.27;2.03;;;24.30;92.60;;;;;;5053661;28;20461;-69
2023/06/04 09:36:10;;;;;;;4.50;2.20;;;24.00;90.80;;;;;;5055723;28;20465;-69
2023/06/04 09:38:36;;;;;;;2.27;2.07;;;23.90;92.20;;;;;;5064073;28;20461;-68
2023/06/04 09:41:05;;;;;;;5.67;2.23;;;24.10;91.10;;;;;;5046013;28;20488;-68
2023/06/04 09:43:33;;;;;;;8.77;2.33;;;24.30;92.30;;;;;;5047127;28;20485;-69
2023/06/04 09:46:10;;;;;;;3.30;2.10;;;24.50;93.00;;;;;;5043428;28;20464;-69
2023/06/04 09:48:37;;;;;;;2.17;1.97;;;24.70;91.00;;;;;;5062013;28;20491;-68
2023/06/04 09:51:08;;;;;;;5.57;2.30;;;24.80;91.60;;;;;;5054644;28;20439;-68
2023/06/04 09:53:35;;;;;;;4.87;2.50;;;24.80;91.40;;;;;;5045848;28;21003;-68
2023/06/04 09:56:04;;;;;;;3.07;2.30;;;24.70;91.30;;;;;;5048488;28;20496;-69
2023/06/04 09:58:31;;;;;;;4.07;2.10;;;24.80;91.80;;;;;;5044977;28;20449;-68
2023/06/04 10:01:00;;;;;;;4.20;2.10;;;25.20;92.20;;;;;;5049272;28;20947;-68
2023/06/04 10:03:28;;;;;;;3.20;2.27;;;25.20;90.60;;;;;;5061346;28;20835;-68
2023/06/04 10:05:57;;;;;;;3.40;1.70;;;25.20;92.00;;;;;;5042614;28;20457;-68
2023/06/04 10:08:26;;;;;;;3.77;2.13;;;25.40;90.20;;;;;;5053744;28;20960;-67
2023/06/04 10:10:56;;;;;;;2.07;1.97;;;25.40;88.90;;;;;;5048809;28;20862;-67
2023/06/04 10:13:27;;;;;;;1.90;1.80;;;25.20;88.70;;;;;;5054831;28;20991;-67
2023/06/04 10:15:56;;;;;;;2.30;2.07;;;25.30;88.80;;;;;;5056579;28;20947;-67
2023/06/04 10:18:24;;;;;;;2.00;1.90;;;25.20;86.10;;;;;;5057877;28;20822;-67
2023/06/04 10:20:51;;;;;;;2.50;2.23;;;24.80;85.00;;;;;;5047522;28;20488;-67
2023/06/04 10:23:20;;;;;;;3.33;1.77;;;24.70;86.10;;;;;;5043076;28;20507;-67
2023/06/04 10:25:50;;;;;;;2.57;2.00;;;24.50;85.60;;;;;;5045254;28;20874;-67
2023/06/04 10:28:19;;;;;;;8.63;3.07;;;24.20;86.50;;;;;;5042414;28;20478;-67
2023/06/04 10:30:47;;;;;;;2.03;1.77;;;24.20;89.10;;;;;;5042944;28;20475;-67
2023/06/04 10:33:15;;;;;;;2.13;1.93;;;24.40;85.80;;;;;;5064192;28;20471;-67
2023/06/04 10:35:42;;;;;;;4.53;1.70;;;24.50;86.60;;;;;;5044304;28;20452;-67
2023/06/04 10:38:10;;;;;;;1.90;1.80;;;24.90;85.60;;;;;;5037976;28;20457;-67
2023/06/04 10:40:37;;;;;;;3.70;2.20;;;24.70;83.10;;;;;;5046627;28;20477;-67
2023/06/04 10:43:07;;;;;;;2.57;1.90;;;24.60;84.90;;;;;;5049632;28;20529;-68
2023/06/04 10:45:34;;;;;;;3.40;1.80;;;24.80;84.30;;;;;;5059652;28;20535;-68
2023/06/04 10:48:03;;;;;;;2.63;1.90;;;25.00;83.60;;;;;;5066384;28;20873;-68
2023/06/04 10:50:30;;;;;;;2.40;1.90;;;24.90;84.60;;;;;;5043521;28;20449;-68
2023/06/04 10:52:58;;;;;;;2.60;2.00;;;25.00;84.10;;;;;;5041320;28;20472;-68
2023/06/04 10:55:25;;;;;;;3.40;2.13;;;25.20;84.70;;;;;;5044252;28;20485;-68
2023/06/04 10:57:53;;;;;;;1.77;1.63;;;25.20;82.80;;;;;;5040919;28;20455;-69
2023/06/04 11:00:20;;;;;;;2.17;1.97;;;25.30;82.00;;;;;;5043968;28;20510;-68
2023/06/04 11:02:54;;;;;;;4.23;2.10;;;25.30;82.90;;;;;;5038155;28;20531;-70
2023/06/04 11:05:34;;;;;;;3.03;2.30;;;25.40;83.00;;;;;;5044682;28;20816;-69
2023/06/04 11:08:02;;;;;;;4.07;2.07;;;25.30;82.30;;;;;;5035109;28;20517;-70
2023/06/04 11:10:33;;;;;;;3.60;1.77;;;25.30;79.90;;;;;;5038906;28;20460;-69
2023/06/04 11:13:00;;;;;;;10.83;2.60;;;25.20;81.10;;;;;;5046942;28;20478;-69
2023/06/04 11:15:37;;;;;;;3.27;2.40;;;25.50;82.20;;;;;;5046246;28;20452;-69
2023/06/04 11:18:04;;;;;;;2.23;2.10;;;25.80;85.10;;;;;;5037319;28;20444;-69
2023/06/04 11:20:32;;;;;;;7.73;2.67;;;26.20;82.00;;;;;;5041460;28;20480;-69
2023/06/04 11:23:02;;;;;;;5.50;2.20;;;26.10;79.70;;;;;;5043882;28;20529;-68
2023/06/04 11:25:30;;;;;;;4.00;2.10;;;25.60;81.00;;;;;;5038901;28;20548;-68
2023/06/04 11:27:58;;;;;;;2.73;2.17;;;25.70;81.90;;;;;;5044853;28;20514;-69
2023/06/04 11:30:25;;;;;;;9.70;2.80;;;26.00;84.60;;;;;;5045329;28;20465;-68
2023/06/04 11:33:01;;;;;;;4.70;2.20;;;26.40;86.00;;;;;;5054817;28;20868;-68
2023/06/04 11:35:27;;;;;;;2.60;2.37;;;26.90;83.80;;;;;;5040173;28;20461;-69
2023/06/04 11:37:56;;;;;;;4.70;2.80;;;27.20;80.80;;;;;;5044067;28;20458;-68
2023/06/04 11:40:24;;;;;;;4.17;2.63;;;27.50;81.50;;;;;;5053378;28;20481;-67
2023/06/04 11:42:51;;;;;;;2.63;2.40;;;27.50;82.40;;;;;;5055447;28;20476;-68
2023/06/04 11:45:19;;;;;;;4.83;2.50;;;27.30;81.00;;;;;;5045770;28;20864;-68
2023/06/04 11:47:48;;;;;;;2.43;2.10;;;27.30;79.50;;;;;;5042135;28;20459;-68
2023/06/04 11:50:15;;;;;;;4.13;2.40;;;27.10;78.10;;;;;;5046891;28;20858;-68
2023/06/04 11:52:41;;;;;;;2.80;2.50;;;27.00;81.00;;;;;;5040727;28;20535;-68
2023/06/04 11:55:11;;;;;;;4.70;2.63;;;27.00;78.80;;;;;;5044574;28;20563;-69
2023/06/04 11:57:38;;;;;;;5.00;2.67;;;27.00;81.70;;;;;;5033785;28;20457;-69
2023/06/04 12:00:09;;;;;;;5.83;2.73;;;27.10;79.20;;;;;;5041945;28;20518;-68
2023/06/04 12:02:35;;;;;;;4.27;2.30;;;26.90;76.30;;;;;;5042707;28;20469;-68
2023/06/04 12:05:12;;;;;;;6.93;2.63;;;26.80;79.80;;;;;;5055418;28;20497;-68
2023/06/04 12:07:38;;;;;;;4.47;2.63;;;27.10;77.30;;;;;;5041429;28;20449;-68
2023/06/04 12:10:07;;;;;;;6.00;3.33;;;27.30;80.50;;;;;;5037980;28;20479;-69
2023/06/04 12:12:35;;;;;;;3.60;2.30;;;27.40;77.70;;;;;;5042744;28;20525;-68
2023/06/04 12:15:03;;;;;;;2.83;2.60;;;27.40;76.70;;;;;;5038683;28;20457;-69
2023/06/04 12:17:30;;;;;;;2.50;2.30;;;27.20;75.80;;;;;;5041211;28;20465;-69
2023/06/04 12:19:58;;;;;;;3.47;3.17;;;26.90;76.80;;;;;;5064576;28;20451;-69
2023/06/04 12:22:26;;;;;;;2.83;2.63;;;26.60;76.20;;;;;;5055221;28;20503;-68
2023/06/04 12:24:54;;;;;;;3.20;2.60;;;26.60;79.60;;;;;;5041979;28;20542;-68
2023/06/04 12:27:22;;;;;;;2.70;2.50;;;26.90;79.70;;;;;;5052054;28;20460;-69
2023/06/04 12:30:00;;;;;;;4.90;2.90;;;27.10;77.20;;;;;;5059822;28;21097;-69
2023/06/04 12:32:27;;;;;;;11.83;3.27;;;27.30;81.80;;;;;;5050446;28;20472;-69
2023/06/04 12:34:54;;;;;;;3.70;3.40;;;27.40;75.50;;;;;;5048484;28;20491;-69
2023/06/04 12:37:25;;;;;;;5.33;3.00;;;27.40;78.40;;;;;;5049892;28;20452;-69
2023/06/04 12:39:52;;;;;;;4.83;2.50;;;27.50;76.40;;;;;;5053608;28;20456;-69
2023/06/04 12:42:19;;;;;;;4.10;2.20;;;27.30;78.60;;;;;;5060258;28;20491;-69
2023/06/04 12:44:46;;;;;;;2.90;2.70;;;27.40;77.10;;;;;;5049174;28;20898;-68
2023/06/04 12:47:14;;;;;;;3.00;2.80;;;27.60;80.50;;;;;;5056210;28;20944;-68